Date,TemperatureHighF,TemperatureAvgF,TemperatureLowF,DewpointHighF,DewpointAvgF,DewpointLowF,HumidityHigh,HumidityAvg,HumidityLow,PressureMaxIn,PressureMinIn,WindSpeedMaxMPH,WindSpeedAvgMPH,GustSpeedMaxMPH,PrecipitationSumIn
2013-1-1,55.1,46.0,38.0,48.4,41.4,34.0,92,84,71,30.17,30.08,5,2,7,0.10
2013-1-2,55.8,51.1,47.0,48.6,46.8,44.9,94,86,74,30.27,30.05,5,2,9,0.25
2013-1-3,59.4,51.0,45.8,46.8,43.8,40.6,89,77,59,30.50,30.28,9,4,12,0.00
2013-1-4,56.7,48.3,40.0,47.6,42.7,37.6,93,82,68,30.50,30.31,7,2,8,0.00
2013-1-5,55.5,47.3,40.6,47.5,42.9,38.6,94,85,73,30.31,30.11,8,3,11,0.00
2013-1-6,57.8,47.5,40.7,50.5,43.8,38.4,93,87,73,30.24,30.09,7,2,9,0.00
2013-1-7,59.4,49.8,43.6,48.5,45.1,41.1,94,85,65,30.23,30.07,8,2,11,0.00
2013-1-8,54.1,46.9,41.5,47.0,42.4,38.3,93,85,75,30.31,30.21,4,1,7,0.00
2013-1-9,54.6,49.9,44.2,46.5,44.6,42.0,93,82,69,30.23,30.11,4,1,4,0.00
2013-1-10,52.5,50.7,47.4,49.1,46.0,42.5,96,84,71,30.11,29.83,5,1,9,0.37
2013-1-11,55.6,46.8,41.0,50.1,43.9,40.1,98,90,68,29.86,29.69,16,3,23,0.03
2013-1-12,54.5,47.6,39.2,48.0,42.9,37.6,95,84,74,30.03,29.85,5,2,8,0.00
2013-1-13,56.4,51.6,47.5,52.4,48.2,44.3,94,88,80,30.01,29.74,12,4,17,0.87
2013-1-14,55.4,52.9,49.6,51.5,46.8,40.0,95,80,68,29.90,29.72,12,6,16,0.11
2013-1-15,53.2,47.8,43.4,43.5,40.9,37.3,89,78,55,29.92,29.55,8,2,13,0.05
2013-1-16,48.8,43.5,40.2,43.8,39.9,37.4,94,87,67,29.56,29.43,15,4,20,0.99
2013-1-17,48.9,42.0,37.5,45.2,39.1,34.7,94,89,82,29.44,29.30,15,4,19,0.15
2013-1-18,47.4,41.9,37.5,37.4,34.7,32.6,94,76,60,29.63,29.36,20,9,22,0.01
2013-1-19,52.8,42.6,35.1,51.1,38.7,31.5,94,86,81,29.66,29.51,7,3,20,0.09
2013-1-20,58.0,56.2,52.6,56.5,54.2,49.9,96,93,87,29.52,29.44,9,5,14,0.35
2013-1-21,54.2,50.9,46.1,50.1,46.2,40.1,94,84,59,29.53,29.38,10,2,11,0.14
2013-1-22,54.5,49.9,43.1,46.2,41.0,35.8,88,72,51,29.80,29.51,15,5,25,0.00
2013-1-23,50.1,46.3,42.9,46.0,42.6,39.5,92,87,80,29.80,29.56,8,2,10,0.39
2013-1-24,53.1,46.5,42.9,44.3,41.8,37.7,95,84,67,29.56,29.40,9,4,11,0.20
2013-1-25,53.0,45.6,39.7,40.1,36.8,33.0,88,72,58,29.64,29.43,13,6,18,0.00
2013-1-26,50.5,43.3,38.1,33.6,31.6,29.5,75,64,50,29.86,29.64,8,4,15,0.00
2013-1-27,52.6,41.8,34.6,40.4,33.0,28.6,82,71,55,29.99,29.86,6,2,11,0.00
2013-1-28,49.9,46.4,41.1,46.8,42.4,35.1,94,86,69,30.05,29.81,10,4,13,0.39
2013-1-29,55.3,47.0,40.3,45.2,42.0,37.6,92,83,65,30.25,30.05,9,3,12,0.01
2013-1-30,58.2,49.5,41.1,50.9,44.3,38.5,92,83,61,30.23,30.15,5,2,8,0.00
2013-1-31,62.8,54.3,47.3,53.2,49.9,44.5,96,86,65,30.20,30.11,11,3,13,0.00